Time;durP1;ratioP1;P1;durP2;ratioP2;P2;SDS_P1;SDS_P2;PMS_P1;PMS_P2;Temp;Humidity;BMP_temperature;BMP_pressure;BME280_temperature;BME280_humidity;BME280_pressure;Samples;Min_cycle;Max_cycle;Signal;HPM_P1;HPM_P2
2021/03/02 00:01:15;;;;;;;13.77;8.50;;;3.30;87.90;;;;;;6240873;23;20174;-79
2021/03/02 00:03:42;;;;;;;13.03;7.80;;;3.20;87.80;;;;;;6238138;23;20173;-79
2021/03/02 00:06:09;;;;;;;11.93;8.10;;;3.20;87.80;;;;;;6238013;23;20183;-80
2021/03/02 00:08:37;;;;;;;11.80;8.17;;;3.10;88.70;;;;;;6239095;23;20184;-82
2021/03/02 00:11:05;;;;;;;13.87;8.60;;;3.00;89.70;;;;;;6239237;23;20204;-81
2021/03/02 00:13:32;;;;;;;16.17;8.67;;;3.00;89.80;;;;;;6238810;23;20200;-81
2021/03/02 00:16:00;;;;;;;12.53;8.60;;;3.10;89.60;;;;;;6239301;23;20203;-80
2021/03/02 00:18:32;;;;;;;11.53;8.20;;;3.10;89.70;;;;;;6242092;23;20179;-81
2021/03/02 00:21:04;;;;;;;13.90;8.13;;;3.00;89.70;;;;;;6240029;23;20204;-81
2021/03/02 00:23:37;;;;;;;14.63;8.40;;;3.00;89.90;;;;;;6240598;23;20179;-80
2021/03/02 00:26:05;;;;;;;13.93;8.00;;;3.00;90.30;;;;;;6239208;23;20585;-81
2021/03/02 00:28:33;;;;;;;13.30;7.90;;;2.90;90.00;;;;;;6240438;23;20174;-80
2021/03/02 00:30:59;;;;;;;14.20;8.83;;;2.80;90.20;;;;;;6239882;22;20523;-80
2021/03/02 00:33:28;;;;;;;11.93;8.00;;;2.80;90.40;;;;;;6239725;23;20254;-79
2021/03/02 00:35:54;;;;;;;13.13;8.07;;;2.80;90.20;;;;;;6241338;23;20422;-80
2021/03/02 00:38:21;;;;;;;12.07;7.53;;;2.80;90.30;;;;;;6240299;23;20691;-82
2021/03/02 00:40:47;;;;;;;13.77;8.40;;;2.80;90.30;;;;;;6239341;23;20279;-80
2021/03/02 00:43:13;;;;;;;12.87;8.33;;;2.90;90.20;;;;;;6238922;23;20260;-79
2021/03/02 00:45:40;;;;;;;12.77;7.77;;;2.80;90.30;;;;;;6237336;23;20255;-80
2021/03/02 00:48:07;;;;;;;12.67;7.93;;;2.80;90.30;;;;;;6237197;23;20179;-79
2021/03/02 00:50:34;;;;;;;10.80;7.30;;;2.80;90.30;;;;;;6239177;23;20201;-79
2021/03/02 00:53:00;;;;;;;11.47;7.67;;;2.70;90.60;;;;;;6241265;23;20279;-81
2021/03/02 00:55:27;;;;;;;12.97;7.73;;;2.70;90.60;;;;;;6238659;23;20496;-81
2021/03/02 00:57:53;;;;;;;15.67;8.20;;;2.70;90.70;;;;;;6241782;23;20524;-81
2021/03/02 01:00:20;;;;;;;14.60;7.43;;;2.80;90.70;;;;;;6239592;23;20741;-81
2021/03/02 01:02:47;;;;;;;11.47;7.53;;;2.80;90.50;;;;;;6241679;23;20196;-79
2021/03/02 01:05:14;;;;;;;12.93;7.90;;;2.80;90.60;;;;;;6238205;23;20209;-81
2021/03/02 01:07:42;;;;;;;12.60;7.57;;;2.80;90.60;;;;;;6241816;23;20620;-80
2021/03/02 01:10:10;;;;;;;12.33;7.07;;;2.90;90.60;;;;;;6239765;23;20723;-81
2021/03/02 01:12:36;;;;;;;11.07;7.63;;;2.80;90.50;;;;;;6238301;23;20644;-81
2021/03/02 01:15:05;;;;;;;14.57;7.50;;;2.80;90.70;;;;;;6240194;23;20287;-80
2021/03/02 01:17:32;;;;;;;11.47;7.57;;;2.80;90.70;;;;;;6239680;23;20183;-81
2021/03/02 01:19:58;;;;;;;10.67;7.17;;;2.80;90.80;;;;;;6239125;23;20211;-81
2021/03/02 01:22:25;;;;;;;12.73;8.00;;;2.80;90.90;;;;;;6239460;23;20259;-79
2021/03/02 01:24:53;;;;;;;11.47;6.90;;;2.80;91.10;;;;;;6238343;23;20342;-82
2021/03/02 01:27:19;;;;;;;9.53;6.87;;;2.80;91.10;;;;;;6240574;23;20228;-79
2021/03/02 01:29:46;;;;;;;9.67;6.53;;;2.80;91.00;;;;;;6239215;22;20326;-80
2021/03/02 01:32:13;;;;;;;12.87;7.50;;;2.80;90.90;;;;;;6241677;23;20207;-79
2021/03/02 01:34:39;;;;;;;10.70;6.67;;;2.80;90.90;;;;;;6240448;23;20282;-81
2021/03/02 01:37:05;;;;;;;11.87;7.17;;;2.70;91.00;;;;;;6238521;23;20171;-79
2021/03/02 01:39:32;;;;;;;10.90;7.30;;;2.70;91.00;;;;;;6240598;23;20272;-80
2021/03/02 01:42:00;;;;;;;13.63;7.30;;;2.70;91.00;;;;;;6240160;23;20172;-80
2021/03/02 01:44:28;;;;;;;12.13;7.20;;;2.60;91.10;;;;;;6237486;23;20511;-81
2021/03/02 01:46:54;;;;;;;11.10;7.20;;;2.70;91.20;;;;;;6237091;23;20176;-80
2021/03/02 01:49:21;;;;;;;12.87;6.97;;;2.60;91.30;;;;;;6238474;23;20201;-79
2021/03/02 01:51:48;;;;;;;12.77;7.37;;;2.70;91.30;;;;;;6241364;23;20175;-79
2021/03/02 01:54:16;;;;;;;12.83;7.60;;;2.60;91.20;;;;;;6239596;23;20204;-82
2021/03/02 01:56:43;;;;;;;14.13;7.77;;;2.60;91.10;;;;;;6241124;23;20160;-79
2021/03/02 01:59:11;;;;;;;12.00;7.10;;;2.60;91.30;;;;;;6238648;23;20679;-79
2021/03/02 02:01:38;;;;;;;13.60;7.67;;;2.60;91.20;;;;;;6242420;23;20248;-79
2021/03/02 02:04:10;;;;;;;10.67;7.27;;;2.50;91.30;;;;;;6241851;23;20565;-81
2021/03/02 02:06:40;;;;;;;12.47;7.23;;;2.60;91.30;;;;;;6241390;23;20160;-83
2021/03/02 02:09:12;;;;;;;11.53;7.07;;;2.50;91.20;;;;;;6240227;23;20208;-79
2021/03/02 02:11:47;;;;;;;13.60;7.50;;;2.40;91.10;;;;;;6241687;23;20161;-79
2021/03/02 02:14:22;;;;;;;12.40;7.07;;;2.40;90.90;;;;;;6240408;23;20207;-79
2021/03/02 02:16:52;;;;;;;10.73;7.07;;;2.40;90.90;;;;;;6241593;23;20216;-80
2021/03/02 02:19:40;;;;;;;12.67;7.10;;;2.30;91.00;;;;;;6241639;23;20198;-81
2021/03/02 02:22:14;;;;;;;9.90;6.90;;;2.20;91.10;;;;;;6241807;23;20365;-80
2021/03/02 02:25:01;;;;;;;10.40;7.10;;;2.20;91.20;;;;;;6240426;23;20199;-78
2021/03/02 02:27:31;;;;;;;9.57;7.10;;;2.20;91.50;;;;;;6243048;23;20806;-78
2021/03/02 02:29:59;;;;;;;10.10;7.13;;;2.10;91.40;;;;;;6241318;22;20209;-77
2021/03/02 02:32:27;;;;;;;14.43;7.37;;;2.00;91.30;;;;;;6241744;23;20200;-77
2021/03/02 02:34:56;;;;;;;11.13;6.97;;;1.90;91.70;;;;;;6241513;23;20211;-80
2021/03/02 02:37:25;;;;;;;13.23;7.13;;;1.80;91.90;;;;;;6242592;23;20187;-80
2021/03/02 02:39:53;;;;;;;12.97;7.43;;;1.70;92.50;;;;;;6241524;23;20210;-81
2021/03/02 02:42:21;;;;;;;8.67;6.37;;;1.80;92.30;;;;;;6244346;23;20174;-79
2021/03/02 02:44:49;;;;;;;13.03;7.33;;;1.80;92.10;;;;;;6243661;23;20261;-79
2021/03/02 02:47:17;;;;;;;14.77;7.57;;;1.80;92.10;;;;;;6237683;23;20194;-80
2021/03/02 02:49:47;;;;;;;11.77;7.10;;;1.80;92.00;;;;;;6239193;23;20204;-79
2021/03/02 02:52:15;;;;;;;9.63;7.00;;;1.90;92.10;;;;;;6240533;23;20159;-81
2021/03/02 02:54:43;;;;;;;12.87;7.77;;;1.90;92.00;;;;;;6239858;23;20205;-80
2021/03/02 02:57:10;;;;;;;11.03;7.27;;;1.80;91.90;;;;;;6241492;23;20473;-79
2021/03/02 02:59:40;;;;;;;10.97;7.40;;;1.80;92.10;;;;;;6241700;23;20208;-81
2021/03/02 03:02:14;;;;;;;8.57;6.40;;;1.80;92.10;;;;;;6242196;23;20677;-81
2021/03/02 03:04:46;;;;;;;10.73;6.90;;;1.90;91.80;;;;;;6240273;23;20212;-79
2021/03/02 03:07:16;;;;;;;11.73;6.83;;;1.80;91.50;;;;;;6240546;23;20164;-77
2021/03/02 03:09:43;;;;;;;12.53;7.30;;;1.80;91.70;;;;;;6242189;23;20280;-79
2021/03/02 03:12:13;;;;;;;12.50;7.40;;;1.70;91.80;;;;;;6240174;23;20176;-76
2021/03/02 03:14:45;;;;;;;10.23;6.83;;;1.70;91.80;;;;;;6240219;23;20222;-77
2021/03/02 03:17:14;;;;;;;12.43;6.97;;;1.60;92.30;;;;;;6240196;23;20164;-79
2021/03/02 03:19:42;;;;;;;11.70;6.90;;;1.50;92.50;;;;;;6240851;23;20206;-77
2021/03/02 03:22:09;;;;;;;10.83;7.03;;;1.60;92.50;;;;;;6240255;23;20226;-77
2021/03/02 03:24:36;;;;;;;14.73;7.53;;;1.60;92.40;;;;;;6241040;23;20257;-79
2021/03/02 03:27:03;;;;;;;15.53;7.33;;;1.70;92.20;;;;;;6242000;23;20259;-80
2021/03/02 03:29:29;;;;;;;11.47;6.93;;;1.70;92.20;;;;;;6240431;22;20836;-80
2021/03/02 03:31:59;;;;;;;10.77;6.70;;;1.70;92.00;;;;;;6241142;23;20183;-81
2021/03/02 03:34:27;;;;;;;14.17;7.17;;;1.80;91.90;;;;;;6241094;23;20213;-79
2021/03/02 03:36:54;;;;;;;10.17;6.50;;;1.70;91.90;;;;;;6242455;23;20177;-79
2021/03/02 03:39:21;;;;;;;9.77;6.60;;;1.70;91.90;;;;;;6240054;23;20201;-79
2021/03/02 03:41:48;;;;;;;10.17;7.07;;;1.70;91.90;;;;;;6241757;23;20261;-80
2021/03/02 03:44:14;;;;;;;12.70;7.30;;;1.60;91.90;;;;;;6239455;23;20197;-79
2021/03/02 03:46:41;;;;;;;11.57;7.40;;;1.50;92.10;;;;;;6236897;23;20256;-79
2021/03/02 03:49:07;;;;;;;12.43;7.00;;;1.50;92.10;;;;;;6239472;23;20197;-79
2021/03/02 03:51:37;;;;;;;9.17;6.73;;;1.60;92.10;;;;;;6239732;23;20163;-79
2021/03/02 03:54:04;;;;;;;11.33;7.20;;;1.60;91.90;;;;;;6240223;23;20201;-78
2021/03/02 03:56:31;;;;;;;9.97;6.30;;;1.60;91.70;;;;;;6239297;23;20169;-80
2021/03/02 03:58:58;;;;;;;11.87;7.00;;;1.60;91.70;;;;;;6242302;23;20228;-79
2021/03/02 04:01:26;;;;;;;10.87;6.23;;;1.50;91.60;;;;;;6240349;23;20179;-80
2021/03/02 04:03:53;;;;;;;10.53;6.93;;;1.50;91.70;;;;;;6240252;23;20179;-79
2021/03/02 04:06:20;;;;;;;12.07;6.97;;;1.50;91.70;;;;;;6238734;23;20744;-79
2021/03/02 04:08:48;;;;;;;8.67;5.87;;;1.40;91.80;;;;;;6241742;23;20166;-79
2021/03/02 04:11:14;;;;;;;8.70;6.43;;;1.40;91.90;;;;;;6239364;23;20169;-79
2021/03/02 04:13:40;;;;;;;8.73;6.10;;;1.40;91.80;;;;;;6241715;23;20281;-78
2021/03/02 04:16:07;;;;;;;9.97;6.70;;;1.40;91.80;;;;;;6238569;23;20274;-78
2021/03/02 04:18:34;;;;;;;10.90;7.03;;;1.40;91.80;;;;;;6240107;23;20195;-82
2021/03/02 04:21:02;;;;;;;11.77;7.20;;;1.30;91.80;;;;;;6239517;23;20208;-78
2021/03/02 04:23:28;;;;;;;9.57;6.57;;;1.20;92.20;;;;;;6240358;23;20417;-80
2021/03/02 04:25:55;;;;;;;8.87;6.23;;;1.10;92.50;;;;;;6238748;23;20206;-79
2021/03/02 04:28:21;;;;;;;11.33;6.80;;;1.10;92.50;;;;;;6240675;23;20632;-80
2021/03/02 04:30:48;;;;;;;14.13;7.87;;;1.10;92.40;;;;;;6240546;22;20288;-79
2021/03/02 04:33:14;;;;;;;14.00;8.73;;;1.10;92.50;;;;;;6238278;23;20289;-79
2021/03/02 04:35:40;;;;;;;14.10;8.90;;;1.20;92.60;;;;;;6240446;23;20203;-78
2021/03/02 04:38:09;;;;;;;15.27;9.50;;;1.20;92.80;;;;;;6241625;23;20245;-80
2021/03/02 04:40:35;;;;;;;11.97;8.47;;;1.20;92.90;;;;;;6239097;23;20202;-80
2021/03/02 04:43:02;;;;;;;15.37;8.43;;;1.20;92.80;;;;;;6240951;23;20198;-78
2021/03/02 04:45:29;;;;;;;13.93;8.47;;;1.20;92.60;;;;;;6236566;23;20206;-78
2021/03/02 04:47:55;;;;;;;11.80;6.67;;;1.30;92.50;;;;;;6237252;23;20264;-80
2021/03/02 04:50:21;;;;;;;11.30;7.23;;;1.20;92.50;;;;;;6236714;23;20748;-79
2021/03/02 04:52:48;;;;;;;11.43;6.97;;;1.20;92.60;;;;;;6239692;23;20274;-78
2021/03/02 04:55:14;;;;;;;10.17;7.13;;;1.10;92.70;;;;;;6238871;23;20293;-78
2021/03/02 04:57:41;;;;;;;11.00;7.47;;;1.10;92.60;;;;;;6238667;23;20393;-81
2021/03/02 05:00:10;;;;;;;10.80;7.10;;;0.90;93.00;;;;;;6239892;23;20513;-78
2021/03/02 05:02:37;;;;;;;10.70;6.80;;;0.90;93.40;;;;;;6240130;23;20196;-80
2021/03/02 05:05:04;;;;;;;11.10;7.27;;;1.00;93.30;;;;;;6247147;23;20218;-81
2021/03/02 05:07:31;;;;;;;10.17;6.83;;;1.00;93.20;;;;;;6247162;23;20162;-79
2021/03/02 05:09:57;;;;;;;11.47;6.83;;;1.00;92.90;;;;;;6239830;23;20203;-81
2021/03/02 05:12:23;;;;;;;10.60;6.67;;;0.90;93.10;;;;;;6241268;23;20296;-79
2021/03/02 05:14:50;;;;;;;11.70;6.97;;;1.00;93.10;;;;;;6240327;23;20584;-80
2021/03/02 05:17:17;;;;;;;11.43;7.63;;;0.90;93.00;;;;;;6239491;23;20572;-79
2021/03/02 05:19:43;;;;;;;11.63;7.20;;;1.00;92.90;;;;;;6239349;23;20641;-79
2021/03/02 05:22:09;;;;;;;10.87;7.10;;;1.00;92.70;;;;;;6236639;23;20173;-80
2021/03/02 05:24:36;;;;;;;12.73;6.53;;;1.00;92.60;;;;;;6238265;23;20682;-79
2021/03/02 05:27:02;;;;;;;10.57;7.03;;;0.90;92.60;;;;;;6238551;23;20252;-79
2021/03/02 05:29:29;;;;;;;10.90;6.97;;;0.90;92.90;;;;;;6239563;22;20207;-80
2021/03/02 05:31:55;;;;;;;10.37;6.60;;;0.80;93.00;;;;;;6240371;23;20226;-80
2021/03/02 05:34:22;;;;;;;10.17;6.47;;;0.70;93.10;;;;;;6237633;23;20213;-79
2021/03/02 05:36:49;;;;;;;12.00;7.00;;;0.80;93.10;;;;;;6241318;23;20234;-79
2021/03/02 05:39:15;;;;;;;12.03;6.93;;;0.80;93.00;;;;;;6241436;23;20327;-79
2021/03/02 05:41:42;;;;;;;10.30;6.47;;;0.80;93.00;;;;;;6241964;23;20351;-79
2021/03/02 05:44:11;;;;;;;11.57;6.90;;;0.90;93.00;;;;;;6241506;23;20667;-79
2021/03/02 05:46:38;;;;;;;11.33;6.60;;;0.90;92.70;;;;;;6241097;23;20173;-79
2021/03/02 05:49:05;;;;;;;11.57;6.80;;;0.80;92.60;;;;;;6240400;23;20305;-80
2021/03/02 05:51:33;;;;;;;9.47;6.03;;;0.80;92.60;;;;;;6240433;23;20186;-79
2021/03/02 05:54:01;;;;;;;11.00;6.47;;;0.80;92.70;;;;;;6239303;23;20196;-79
2021/03/02 05:56:28;;;;;;;11.73;7.03;;;0.80;92.70;;;;;;6236766;23;20161;-78
2021/03/02 05:58:55;;;;;;;11.27;6.37;;;0.80;92.60;;;;;;6242522;23;20223;-78
2021/03/02 06:01:21;;;;;;;11.30;6.80;;;0.80;92.50;;;;;;6238789;23;20464;-78
2021/03/02 06:03:48;;;;;;;11.30;6.40;;;0.80;92.50;;;;;;6240403;23;20691;-80
2021/03/02 06:06:14;;;;;;;11.73;6.40;;;0.70;92.40;;;;;;6242776;23;20177;-80
2021/03/02 06:08:44;;;;;;;11.10;6.53;;;0.80;92.40;;;;;;6242009;23;20605;-79
2021/03/02 06:11:27;;;;;;;9.63;6.37;;;0.80;92.50;;;;;;6240870;23;20189;-79
2021/03/02 06:13:54;;;;;;;9.50;6.73;;;0.80;92.30;;;;;;6241832;23;20185;-79
2021/03/02 06:16:21;;;;;;;13.07;7.70;;;0.70;92.70;;;;;;6242780;23;20177;-79
2021/03/02 06:18:49;;;;;;;15.63;8.47;;;0.60;92.60;;;;;;6240802;23;20629;-80
2021/03/02 06:21:16;;;;;;;14.07;7.20;;;0.60;94.10;;;;;;6243542;23;20175;-78
2021/03/02 06:23:50;;;;;;;12.03;7.73;;;0.90;94.70;;;;;;6241599;23;20223;-79
2021/03/02 06:26:25;;;;;;;13.13;6.80;;;1.20;94.30;;;;;;6241785;23;20189;-80
2021/03/02 06:28:53;;;;;;;10.07;6.70;;;1.20;91.90;;;;;;6238521;23;20167;-81
2021/03/02 06:31:37;;;;;;;11.93;6.80;;;1.10;92.70;;;;;;6241157;22;20239;-82
2021/03/02 06:34:12;;;;;;;11.30;6.97;;;1.30;93.40;;;;;;6240019;23;20264;-79
2021/03/02 06:36:40;;;;;;;10.50;7.13;;;1.40;92.10;;;;;;6241410;23;20190;-80
2021/03/02 06:39:29;;;;;;;9.73;6.67;;;1.40;92.50;;;;;;6241138;23;20523;-79
2021/03/02 06:42:10;;;;;;;12.50;6.80;;;1.60;93.60;;;;;;6243154;23;20484;-81
2021/03/02 06:44:37;;;;;;;14.77;7.80;;;1.60;92.80;;;;;;6240650;23;20206;-81
2021/03/02 06:47:03;;;;;;;14.77;7.20;;;1.80;92.40;;;;;;6241488;23;20168;-83
2021/03/02 06:49:40;;;;;;;13.83;7.00;;;1.80;91.70;;;;;;6241037;23;20203;-79
2021/03/02 06:52:17;;;;;;;10.37;7.47;;;1.80;91.30;;;;;;6237380;23;20592;-79
2021/03/02 06:54:48;;;;;;;15.47;8.40;;;1.80;92.90;;;;;;6238008;23;20204;-84
2021/03/02 06:57:21;;;;;;;14.13;7.83;;;1.70;91.70;;;;;;6241060;23;20184;-80
2021/03/02 06:59:52;;;;;;;15.03;7.77;;;1.70;92.50;;;;;;6240463;23;20260;-83
2021/03/02 07:02:32;;;;;;;12.10;7.57;;;1.80;92.40;;;;;;6243171;23;20209;-80
2021/03/02 07:05:09;;;;;;;11.87;8.37;;;1.80;91.70;;;;;;6241678;23;20205;-81
2021/03/02 07:07:35;;;;;;;9.60;7.07;;;1.60;91.70;;;;;;6240428;23;20668;-78
2021/03/02 07:10:05;;;;;;;15.03;7.90;;;1.60;91.90;;;;;;6241309;23;20282;-80
2021/03/02 07:12:33;;;;;;;12.20;7.83;;;1.80;93.00;;;;;;6241466;23;20204;-79
2021/03/02 07:15:03;;;;;;;27.87;19.00;;;2.00;92.90;;;;;;6245243;23;20680;-83
2021/03/02 07:17:30;;;;;;;29.20;19.47;;;2.40;92.30;;;;;;6245503;23;20169;-79
2021/03/02 07:19:58;;;;;;;12.13;8.97;;;2.50;91.50;;;;;;6240044;23;20542;-81
2021/03/02 07:22:25;;;;;;;18.63;8.67;;;2.80;92.40;;;;;;6239939;23;20176;-79
2021/03/02 07:24:53;;;;;;;18.67;9.17;;;3.50;91.40;;;;;;6254173;23;20204;-87
2021/03/02 07:27:22;;;;;;;14.67;8.47;;;4.00;88.30;;;;;;6250286;23;20173;-81
2021/03/02 07:29:50;;;;;;;12.30;7.60;;;4.40;86.50;;;;;;6239347;22;20213;-80
2021/03/02 07:32:16;;;;;;;14.53;8.30;;;4.40;83.20;;;;;;6237446;23;20189;-80
2021/03/02 07:34:45;;;;;;;12.63;8.00;;;4.20;83.30;;;;;;6240072;23;20259;-82
2021/03/02 07:37:12;;;;;;;15.40;8.07;;;4.10;86.30;;;;;;6241531;23;20235;-79
2021/03/02 07:39:38;;;;;;;15.33;8.43;;;4.20;88.50;;;;;;6241118;23;20201;-79
2021/03/02 07:42:23;;;;;;;17.33;8.80;;;4.30;88.50;;;;;;6241790;23;20597;-83
2021/03/02 07:45:03;;;;;;;15.10;7.40;;;4.50;88.70;;;;;;6242957;23;20212;-81
2021/03/02 07:47:42;;;;;;;12.13;7.90;;;4.60;85.80;;;;;;6241627;23;20187;-82
2021/03/02 07:50:30;;;;;;;12.83;7.03;;;4.50;82.90;;;;;;6243183;23;20220;-83
2021/03/02 07:53:20;;;;;;;12.33;7.60;;;4.70;83.50;;;;;;6235810;23;20200;-86
2021/03/02 07:55:47;;;;;;;13.90;6.90;;;5.10;83.60;;;;;;6231680;23;20205;-85
2021/03/02 07:58:16;;;;;;;10.37;7.13;;;5.90;79.00;;;;;;6243118;23;20180;-86
2021/03/02 08:00:43;;;;;;;11.90;7.30;;;6.50;71.30;;;;;;6244923;23;20280;-87
2021/03/02 08:03:28;;;;;;;13.13;6.97;;;6.90;71.70;;;;;;6245306;23;20163;-89
2021/03/02 08:05:59;;;;;;;12.20;6.60;;;7.30;70.40;;;;;;6244014;23;20204;-87
2021/03/02 08:08:33;;;;;;;9.53;6.80;;;7.10;69.30;;;;;;6244895;23;20161;-84
2021/03/02 08:11:01;;;;;;;9.20;7.00;;;7.00;71.80;;;;;;6242197;23;20224;-84
2021/03/02 08:13:37;;;;;;;8.57;7.13;;;7.20;68.10;;;;;;6244491;23;20200;-84
2021/03/02 08:16:04;;;;;;;10.57;6.83;;;7.30;68.10;;;;;;6245850;23;20197;-86
2021/03/02 08:18:33;;;;;;;8.73;6.67;;;7.20;73.30;;;;;;6245566;23;20615;-85
2021/03/02 08:21:14;;;;;;;12.77;6.77;;;7.20;72.10;;;;;;6245572;23;20201;-85
2021/03/02 08:24:02;;;;;;;12.37;6.67;;;7.30;72.10;;;;;;6247475;23;20171;-84
2021/03/02 08:26:30;;;;;;;11.97;6.53;;;7.20;69.90;;;;;;6229345;23;20184;-86
2021/03/02 08:29:18;;;;;;;13.40;7.30;;;7.10;68.60;;;;;;6244015;23;20168;-84
2021/03/02 08:31:46;;;;;;;10.60;6.87;;;6.90;69.60;;;;;;6236724;23;20197;-82
2021/03/02 08:34:14;;;;;;;12.03;7.03;;;7.10;72.00;;;;;;6243144;23;20200;-81
2021/03/02 08:36:41;;;;;;;12.43;6.83;;;7.30;73.30;;;;;;6245680;23;20173;-83
2021/03/02 08:39:10;;;;;;;12.77;6.57;;;7.30;68.90;;;;;;6245471;23;20216;-85
2021/03/02 08:41:38;;;;;;;9.17;6.50;;;7.20;72.10;;;;;;6244797;23;20229;-84
2021/03/02 08:44:05;;;;;;;9.63;6.53;;;7.50;68.90;;;;;;6245336;23;20167;-83
2021/03/02 08:46:34;;;;;;;9.47;7.10;;;7.60;65.00;;;;;;6241217;23;20181;-84
2021/03/02 08:49:08;;;;;;;13.67;7.17;;;7.60;66.40;;;;;;6241483;23;20222;-84
2021/03/02 08:51:36;;;;;;;13.07;7.43;;;8.00;68.30;;;;;;6242944;23;20156;-85
2021/03/02 08:54:02;;;;;;;13.13;7.35;;;8.30;64.80;;;;;;6244756;23;20189;-86
2021/03/02 08:56:28;;;;;;;12.50;7.22;;;8.80;60.90;;;;;;6243156;23;20170;-83
2021/03/02 08:59:02;;;;;;;10.23;7.53;;;9.00;57.60;;;;;;6245490;23;20462;-84
2021/03/02 09:01:33;;;;;;;13.10;7.25;;;9.50;55.80;;;;;;6248688;23;20244;-84
2021/03/02 09:04:12;;;;;;;11.57;7.35;;;10.40;53.30;;;;;;6251428;23;20202;-84
2021/03/02 09:06:39;;;;;;;12.55;8.52;;;10.60;47.30;;;;;;6249735;23;20168;-86
2021/03/02 09:09:08;;;;;;;10.45;7.40;;;11.40;48.00;;;;;;6243285;23;20169;-85
2021/03/02 09:11:37;;;;;;;9.43;6.90;;;11.90;43.40;;;;;;6249568;23;20596;-87
2021/03/02 09:14:05;;;;;;;10.70;7.18;;;13.10;41.80;;;;;;6244299;23;20215;-85
2021/03/02 09:16:37;;;;;;;9.15;6.43;;;14.50;37.60;;;;;;6243542;23;20158;-85
2021/03/02 09:19:19;;;;;;;10.15;7.40;;;15.60;33.70;;;;;;6243783;23;20162;-84
2021/03/02 09:21:49;;;;;;;9.63;6.90;;;16.50;32.30;;;;;;6246586;23;20173;-81
2021/03/02 09:24:17;;;;;;;11.45;7.25;;;17.40;29.90;;;;;;6244293;23;20205;-83
2021/03/02 09:26:55;;;;;;;16.25;7.75;;;18.30;30.60;;;;;;6244903;23;20256;-80
2021/03/02 09:29:24;;;;;;;10.23;6.80;;;19.40;28.10;;;;;;6230930;23;20205;-86
2021/03/02 09:31:51;;;;;;;12.40;6.82;;;20.20;27.00;;;;;;6240016;23;20191;-79
2021/03/02 09:34:19;;;;;;;10.00;7.60;;;20.70;25.30;;;;;;6240379;23;20216;-81
2021/03/02 09:36:45;;;;;;;12.88;7.30;;;21.80;23.70;;;;;;6247098;23;20450;-80
2021/03/02 09:39:24;;;;;;;12.35;7.32;;;21.40;22.40;;;;;;6240464;23;20708;-83
2021/03/02 09:41:51;;;;;;;8.85;7.53;;;20.50;22.80;;;;;;6241215;23;20173;-81
2021/03/02 09:44:32;;;;;;;10.20;7.03;;;20.50;23.10;;;;;;6241978;23;20204;-81
2021/03/02 09:47:03;;;;;;;11.55;7.15;;;20.90;23.50;;;;;;6237432;23;20215;-84
2021/03/02 09:49:38;;;;;;;11.20;7.60;;;22.20;22.10;;;;;;6237975;23;20200;-79
2021/03/02 09:52:06;;;;;;;9.95;7.75;;;21.70;21.70;;;;;;6238562;23;20503;-80
2021/03/02 09:54:32;;;;;;;13.25;7.97;;;22.20;20.90;;;;;;6236986;23;20670;-83
2021/03/02 09:57:01;;;;;;;8.52;7.50;;;21.60;21.60;;;;;;6240242;23;20169;-80
2021/03/02 09:59:28;;;;;;;11.25;7.13;;;21.60;21.40;;;;;;6238029;23;20659;-79
2021/03/02 10:01:54;;;;;;;11.77;7.80;;;22.30;20.90;;;;;;6238531;23;20736;-83
2021/03/02 10:04:21;;;;;;;14.10;7.63;;;22.50;19.80;;;;;;6238967;23;20208;-80
2021/03/02 10:06:49;;;;;;;13.93;8.02;;;22.30;19.90;;;;;;6240692;23;20222;-79
2021/03/02 10:09:20;;;;;;;9.65;7.85;;;21.50;21.20;;;;;;6239202;23;20196;-80
2021/03/02 10:11:48;;;;;;;8.65;7.07;;;22.40;21.60;;;;;;6239820;23;20685;-79
2021/03/02 10:14:14;;;;;;;16.08;8.55;;;23.10;19.90;;;;;;6238406;23;20203;-79
2021/03/02 10:16:42;;;;;;;9.32;7.32;;;22.10;20.90;;;;;;6240151;23;20195;-79
2021/03/02 10:19:17;;;;;;;14.15;7.45;;;22.40;20.20;;;;;;6238055;23;20197;-79
2021/03/02 10:21:46;;;;;;;11.25;7.90;;;22.60;19.10;;;;;;6240932;23;20164;-80
2021/03/02 10:24:22;;;;;;;13.05;8.30;;;23.20;18.90;;;;;;6238156;23;20674;-80
2021/03/02 10:26:49;;;;;;;13.95;8.48;;;22.40;20.00;;;;;;6240931;23;20195;-84
2021/03/02 10:29:16;;;;;;;12.02;9.50;;;22.50;20.10;;;;;;6241345;23;20271;-80
2021/03/02 10:31:43;;;;;;;12.07;8.43;;;22.10;19.90;;;;;;6239508;22;20196;-81
2021/03/02 10:34:17;;;;;;;11.75;8.15;;;21.70;21.70;;;;;;6238301;23;20251;-81
2021/03/02 10:36:46;;;;;;;15.52;9.07;;;21.00;20.30;;;;;;6243497;23;20164;-80
2021/03/02 10:39:14;;;;;;;9.32;8.40;;;20.80;21.70;;;;;;6238519;23;20272;-82
2021/03/02 10:41:42;;;;;;;10.07;8.18;;;20.60;20.80;;;;;;6241602;23;20247;-81
2021/03/02 10:44:09;;;;;;;11.88;7.53;;;20.40;21.70;;;;;;6245723;23;20220;-82
2021/03/02 10:46:37;;;;;;;13.02;8.68;;;20.50;22.00;;;;;;6244735;23;20246;-79
2021/03/02 10:49:05;;;;;;;13.75;8.15;;;20.50;22.20;;;;;;6242079;23;20157;-79
2021/03/02 10:51:32;;;;;;;15.75;8.30;;;21.40;21.80;;;;;;6244088;23;20255;-81
2021/03/02 10:54:00;;;;;;;17.48;8.65;;;21.20;21.30;;;;;;6246159;23;20298;-82
2021/03/02 10:56:27;;;;;;;19.73;8.73;;;21.50;21.50;;;;;;6249907;23;20240;-80
2021/03/02 10:58:54;;;;;;;22.40;9.27;;;20.80;22.80;;;;;;6246369;23;20169;-81
2021/03/02 11:01:21;;;;;;;16.90;8.57;;;20.50;22.80;;;;;;6246501;23;20173;-80
2021/03/02 11:03:48;;;;;;;14.80;8.40;;;20.20;22.80;;;;;;6245651;23;20519;-82
2021/03/02 11:06:15;;;;;;;15.32;9.57;;;20.30;24.20;;;;;;6244805;23;20242;-81
2021/03/02 11:08:44;;;;;;;14.00;8.98;;;20.40;21.90;;;;;;6242110;23;20268;-79
2021/03/02 11:11:10;;;;;;;12.43;9.25;;;19.50;24.30;;;;;;6240889;23;20201;-78
2021/03/02 11:13:37;;;;;;;17.45;8.93;;;19.90;23.60;;;;;;6243290;23;20205;-81
2021/03/02 11:16:05;;;;;;;13.85;9.35;;;19.60;25.80;;;;;;6244527;23;20247;-83
2021/03/02 11:18:31;;;;;;;17.88;8.82;;;19.30;24.00;;;;;;6239176;23;20242;-78
2021/03/02 11:20:57;;;;;;;16.45;8.82;;;19.20;24.10;;;;;;6240784;23;20212;-82
2021/03/02 11:23:25;;;;;;;15.82;9.70;;;18.30;28.30;;;;;;6244215;23;20208;-85
2021/03/02 11:25:51;;;;;;;10.73;8.63;;;17.60;28.20;;;;;;6238814;23;20244;-84
2021/03/02 11:28:18;;;;;;;11.50;8.98;;;17.30;29.70;;;;;;6245799;23;20169;-82
2021/03/02 11:30:44;;;;;;;15.20;8.90;;;17.00;29.60;;;;;;6245938;22;20283;-83
2021/03/02 11:33:13;;;;;;;13.40;8.93;;;16.30;29.00;;;;;;6247638;23;20316;-83
2021/03/02 11:35:40;;;;;;;16.08;9.00;;;16.20;31.70;;;;;;6245220;23;20205;-82
2021/03/02 11:38:07;;;;;;;20.75;9.48;;;15.50;33.00;;;;;;6245129;23;20255;-87
2021/03/02 11:40:33;;;;;;;16.67;9.43;;;15.10;32.10;;;;;;6247289;23;20300;-83
2021/03/02 11:43:00;;;;;;;16.15;9.05;;;14.70;33.30;;;;;;6247182;23;20227;-83
2021/03/02 11:45:28;;;;;;;17.30;9.48;;;14.60;33.80;;;;;;6248763;23;20262;-83
2021/03/02 11:47:55;;;;;;;13.23;8.52;;;14.40;34.80;;;;;;6255357;23;20203;-83
2021/03/02 11:50:34;;;;;;;13.77;8.43;;;14.30;34.30;;;;;;6255039;23;20264;-85
2021/03/02 11:53:21;;;;;;;14.35;8.82;;;14.30;34.40;;;;;;6257369;23;20168;-88
2021/03/02 11:55:51;;;;;;;12.93;9.18;;;14.30;33.70;;;;;;6241112;23;20276;-84
2021/03/02 11:58:20;;;;;;;16.60;9.18;;;14.20;35.10;;;;;;6254965;23;20173;-84
2021/03/02 12:00:46;;;;;;;17.65;9.32;;;14.10;37.30;;;;;;6255258;23;20205;-84
2021/03/02 12:03:12;;;;;;;12.45;9.02;;;14.00;37.40;;;;;;6251019;23;20250;-84
2021/03/02 12:05:40;;;;;;;18.00;8.75;;;13.90;36.10;;;;;;6251864;23;20257;-83
2021/03/02 12:08:14;;;;;;;16.17;8.80;;;14.00;36.80;;;;;;6253024;23;20596;-85
2021/03/02 12:10:40;;;;;;;12.25;8.60;;;14.00;36.70;;;;;;6251249;23;20256;-86
2021/03/02 12:13:07;;;;;;;15.27;9.23;;;14.10;36.30;;;;;;6254679;23;20509;-85
2021/03/02 12:15:34;;;;;;;14.82;8.77;;;14.30;36.50;;;;;;6253215;23;20221;-85
2021/03/02 12:18:00;;;;;;;19.33;9.32;;;14.40;34.70;;;;;;6252899;23;20166;-86
2021/03/02 12:20:27;;;;;;;12.52;8.63;;;14.00;35.70;;;;;;6251840;23;20280;-85
2021/03/02 12:22:54;;;;;;;14.65;9.07;;;14.00;36.20;;;;;;6251269;23;20180;-85
2021/03/02 12:25:20;;;;;;;17.17;8.60;;;14.00;35.90;;;;;;6251465;23;20276;-85
2021/03/02 12:27:47;;;;;;;15.68;8.77;;;13.60;37.40;;;;;;6253714;23;20216;-85
2021/03/02 12:30:14;;;;;;;16.27;8.90;;;13.70;37.50;;;;;;6253330;22;20237;-84
2021/03/02 12:32:41;;;;;;;18.35;8.73;;;13.30;37.90;;;;;;6252417;23;20193;-86
2021/03/02 12:35:08;;;;;;;17.75;9.02;;;13.50;37.40;;;;;;6253476;23;20231;-86
2021/03/02 12:37:40;;;;;;;18.50;9.20;;;13.50;37.10;;;;;;6254002;23;20222;-85
2021/03/02 12:40:09;;;;;;;17.27;8.98;;;13.70;37.90;;;;;;6252941;22;20208;-85
2021/03/02 12:42:36;;;;;;;16.67;8.45;;;13.70;37.30;;;;;;6252186;23;20249;-84
2021/03/02 12:45:03;;;;;;;20.02;9.07;;;13.80;36.60;;;;;;6249424;23;20284;-85
2021/03/02 12:47:29;;;;;;;18.45;9.80;;;13.80;37.20;;;;;;6225086;23;20204;-83
2021/03/02 12:49:57;;;;;;;18.50;9.70;;;13.70;37.60;;;;;;6247281;23;20236;-83
2021/03/02 12:52:25;;;;;;;16.00;9.52;;;13.70;37.00;;;;;;6250808;23;20582;-83
2021/03/02 12:54:52;;;;;;;15.90;8.60;;;13.70;38.70;;;;;;6250089;23;20232;-86